Dobbs Ferry, New York
Current Conditions -  °F | °C
As of 9:56 PM on Tuesday 21 Oct 2014 (Local Time) from KHPN Reporting Station
Broken Clouds Broken Clouds  
Wind Chill: 54°   Ceiling: 9000
Heat Index: 54°   Visibility: 10mi
Dew Point: 51°   Wind: 8mph
Humidity: 90%   Direction: 340°NNW
Pressure: 29.91"   Gusts: NA
Location:  41.02°N, 73.87°W
Report Text: KHPN 220156Z 34007KT 10SM SCT034 BKN090 12/11 A2991 RMK AO2 SLP129 T01220106
Loading
Personal Weather Stations






























Interactive Weather Map New forecast layout! Learn more

10-Day Weather Forecast

Advertisements
Track Severe Weather on mobile